Accueil
METAR-TAF:

METAR-TAF

Aéroports :

Aéroport international de Pristina

Pristina, Kosovo

latitude: 42-34-27N, longitude: 21-02-09E, altitude: 545 m

Observation

Le bulletin a été fait il y a 37 minutes, à 15:00 UTC
Vent 7 kt de nord, variant entre nord-ouest et nord/nord-est
Température 23°C
Humidité 47%
Pression 1016 hPa
Visibilité 10 km ou plus
Quelques nuages à une hauteur de 2000 ft
Nuages épars à une hauteur de 4000 ft

METAR: BKPR 141500Z 35007KT 320V020 9999 FEW020 SCT040 23/11 Q1016 NOSIG

Heure: 17:37 (15:37 UTC)

Prévision

Le bulletin a été fait il y a 4 heures et 7 minutes, à 11:30 UTC
Prévision valable du 14 à 12 UTC au 15 à 12 UTC
Vent 8 kt de nord/nord-est
Visibilité 10 km ou plus
Nuages épars à une hauteur de 5000 ft

TAF: BKPR 141130Z 1412/1512 03008KT 9999 SCT050

Observations et prévisions météorologiques de plus de 4000 aéroports (messages METAR et TAF).

Les stations disponibles sont représentées par des disques jaunes et rouges sur la carte.

Passer la souris dessus pour voir le nom de la station.

Cliquer dessus pour voir les observations et prévisions météorologiques.

Pour changer de carte: cliquez sur les boutons verts avec une croix noire pour zoomer, sur le bouton vert avec un tiret pour effectuer un zoom arrière, ou sur les flèches vertes pour les cartes adjacentes.


METAR-TAF: